TimeCDT,TemperatureF,Dew PointF,Humidity,Sea Level PressureIn,VisibilityMPH,Wind Direction,Wind SpeedMPH,Gust SpeedMPH,PrecipitationIn,Events,Conditions,WindDirDegrees,DateUTC
12:15 AM,60.8,57.2,88,29.86,4.0,North,4.6,-,N/A,,Overcast,10,2013-06-10 05:15:00
12:35 AM,60.8,57.2,88,29.86,3.0,NNW,4.6,-,N/A,,Overcast,340,2013-06-10 05:35:00
12:56 AM,60.8,57.2,88,29.86,2.5,NNW,4.6,-,N/A,,Overcast,340,2013-06-10 05:56:00
1:15 AM,60.8,57.2,88,29.86,2.5,NNW,3.5,-,N/A,,Overcast,330,2013-06-10 06:15:00
1:35 AM,60.8,55.4,82,29.85,1.0,NNW,3.5,-,N/A,,Overcast,330,2013-06-10 06:35:00
1:55 AM,59.0,55.4,88,29.85,0.8,NW,3.5,-,N/A,,Overcast,320,2013-06-10 06:55:00
2:15 AM,60.8,57.2,88,29.86,1.8,Calm,Calm,-,N/A,,Overcast,0,2013-06-10 07:15:00
2:35 AM,60.8,57.2,88,29.85,2.0,Calm,Calm,-,N/A,,Overcast,0,2013-06-10 07:35:00
2:55 AM,60.8,57.2,88,29.84,1.8,Calm,Calm,-,N/A,,Overcast,0,2013-06-10 07:55:00
3:15 AM,60.8,57.2,88,29.84,2.0,Calm,Calm,-,N/A,,Overcast,0,2013-06-10 08:15:00
3:35 AM,60.8,57.2,88,29.84,5.0,NW,4.6,-,N/A,,Overcast,310,2013-06-10 08:35:00
3:55 AM,60.8,55.4,82,29.84,5.0,Calm,Calm,-,N/A,,Overcast,0,2013-06-10 08:55:00
4:16 AM,60.8,55.4,82,29.84,5.0,Calm,Calm,-,N/A,,Overcast,0,2013-06-10 09:16:00
4:35 AM,60.8,55.4,82,29.84,5.0,Calm,Calm,-,N/A,,Overcast,0,2013-06-10 09:35:00
4:55 AM,60.8,55.4,82,29.83,5.0,East,3.5,-,N/A,,Overcast,90,2013-06-10 09:55:00
5:15 AM,60.8,55.4,82,29.83,5.0,Calm,Calm,-,N/A,,Overcast,0,2013-06-10 10:15:00
5:35 AM,60.8,55.4,82,29.83,5.0,Calm,Calm,-,N/A,,Overcast,0,2013-06-10 10:35:00
5:55 AM,60.8,55.4,82,29.84,7.0,Calm,Calm,-,N/A,,Overcast,0,2013-06-10 10:55:00
6:15 AM,60.8,55.4,82,29.86,5.0,NNW,3.5,-,N/A,,Overcast,340,2013-06-10 11:15:00
6:35 AM,60.8,55.4,82,29.85,5.0,Calm,Calm,-,N/A,,Overcast,0,2013-06-10 11:35:00
6:55 AM,60.8,55.4,82,29.88,5.0,NW,3.5,-,N/A,,Overcast,320,2013-06-10 11:55:00
7:16 AM,60.8,55.4,82,29.87,5.0,WNW,4.6,-,N/A,,Overcast,300,2013-06-10 12:16:00
7:35 AM,60.8,55.4,82,29.87,5.0,NW,6.9,-,N/A,,Overcast,310,2013-06-10 12:35:00
7:55 AM,60.8,55.4,82,29.89,5.0,NW,9.2,-,N/A,,Overcast,310,2013-06-10 12:55:00
8:15 AM,60.8,55.4,82,29.90,7.0,West,5.8,-,N/A,,Overcast,280,2013-06-10 13:15:00
8:35 AM,60.8,55.4,82,29.90,5.0,West,4.6,-,N/A,,Haze,280,2013-06-10 13:35:00
8:55 AM,60.8,57.2,88,29.89,5.0,NW,4.6,-,N/A,,Overcast,310,2013-06-10 13:55:00
9:16 AM,62.6,55.4,77,29.90,10.0,WNW,6.9,-,N/A,,Overcast,290,2013-06-10 14:16:00
9:35 AM,62.6,55.4,77,29.89,10.0,WNW,6.9,-,N/A,,Overcast,300,2013-06-10 14:35:00
9:55 AM,62.6,55.4,77,29.89,10.0,West,5.8,-,N/A,,Overcast,280,2013-06-10 14:55:00
10:15 AM,62.6,55.4,77,29.89,10.0,NW,8.1,-,N/A,,Overcast,310,2013-06-10 15:15:00
10:35 AM,62.6,55.4,77,29.90,10.0,WNW,5.8,-,N/A,,Overcast,290,2013-06-10 15:35:00
10:55 AM,62.6,55.4,77,29.88,10.0,NNW,3.5,-,N/A,,Overcast,330,2013-06-10 15:55:00
11:15 AM,64.4,55.4,73,29.89,10.0,NNW,5.8,-,N/A,,Mostly Cloudy,330,2013-06-10 16:15:00
11:35 AM,66.2,55.4,68,29.88,10.0,North,3.5,-,N/A,,Scattered Clouds,360,2013-06-10 16:35:00
11:55 AM,66.2,55.4,68,29.87,10.0,North,3.5,-,N/A,,Scattered Clouds,360,2013-06-10 16:55:00
12:15 PM,66.2,55.4,68,29.86,10.0,NE,3.5,-,N/A,,Scattered Clouds,50,2013-06-10 17:15:00
12:35 PM,68.0,55.4,64,29.86,10.0,Calm,Calm,-,N/A,,Clear,0,2013-06-10 17:35:00
12:55 PM,69.8,55.4,60,29.87,10.0,ESE,3.5,-,N/A,,Clear,110,2013-06-10 17:55:00
1:15 PM,69.8,55.4,60,29.87,10.0,SW,3.5,-,N/A,,Scattered Clouds,230,2013-06-10 18:15:00
1:35 PM,69.8,57.2,64,29.86,10.0,SE,3.5,-,N/A,,Scattered Clouds,130,2013-06-10 18:35:00
1:56 PM,71.6,57.2,60,29.86,10.0,Calm,Calm,-,N/A,,Scattered Clouds,0,2013-06-10 18:56:00
2:15 PM,71.6,57.2,60,29.86,10.0,Calm,Calm,-,N/A,,Clear,0,2013-06-10 19:15:00
2:35 PM,71.6,57.2,60,29.86,10.0,SSE,3.5,-,N/A,,Clear,160,2013-06-10 19:35:00
2:56 PM,73.4,57.2,57,29.85,10.0,SSE,3.5,-,N/A,,Clear,160,2013-06-10 19:56:00
3:15 PM,73.4,57.2,57,29.85,10.0,South,3.5,-,N/A,,Clear,170,2013-06-10 20:15:00
3:35 PM,75.2,57.2,53,29.85,10.0,South,5.8,-,N/A,,Clear,170,2013-06-10 20:35:00
3:55 PM,75.2,55.4,50,29.85,10.0,SSE,4.6,-,N/A,,Clear,150,2013-06-10 20:55:00
4:15 PM,75.2,57.2,53,29.84,10.0,East,4.6,-,N/A,,Clear,100,2013-06-10 21:15:00
4:35 PM,77.0,57.2,50,29.84,10.0,ESE,5.8,-,N/A,,Clear,110,2013-06-10 21:35:00
4:55 PM,77.0,55.4,47,29.84,10.0,SSE,4.6,-,N/A,,Clear,150,2013-06-10 21:55:00
5:15 PM,77.0,57.2,50,29.84,10.0,SE,6.9,-,N/A,,Clear,140,2013-06-10 22:15:00
5:35 PM,77.0,55.4,47,29.84,10.0,South,4.6,-,N/A,,Clear,190,2013-06-10 22:35:00
5:55 PM,78.8,55.4,44,29.83,10.0,Calm,Calm,-,N/A,,Clear,0,2013-06-10 22:55:00
6:15 PM,78.8,57.2,47,29.83,10.0,SE,4.6,-,N/A,,Clear,140,2013-06-10 23:15:00
6:35 PM,77.0,55.4,47,29.83,10.0,SSW,4.6,-,N/A,,Clear,200,2013-06-10 23:35:00
6:55 PM,77.0,55.4,47,29.83,10.0,South,4.6,-,N/A,,Clear,180,2013-06-10 23:55:00
7:16 PM,77.0,55.4,47,29.83,10.0,SSE,8.1,-,N/A,,Clear,150,2013-06-11 00:16:00
7:35 PM,77.0,55.4,47,29.83,10.0,SSE,3.5,-,N/A,,Clear,160,2013-06-11 00:35:00
7:55 PM,77.0,57.2,50,29.83,10.0,SSE,6.9,-,N/A,,Clear,160,2013-06-11 00:55:00
8:16 PM,75.2,57.2,53,29.81,10.0,SE,9.2,-,N/A,,Clear,140,2013-06-11 01:16:00
8:35 PM,75.2,57.2,53,29.82,10.0,SSE,5.8,-,N/A,,Clear,160,2013-06-11 01:35:00
8:55 PM,73.4,57.2,57,29.82,10.0,SSE,3.5,-,N/A,,Clear,160,2013-06-11 01:55:00
9:16 PM,71.6,57.2,60,29.83,10.0,SSE,3.5,-,N/A,,Clear,160,2013-06-11 02:16:00
9:35 PM,71.6,57.2,60,29.84,10.0,SSE,3.5,-,N/A,,Clear,160,2013-06-11 02:35:00
9:55 PM,69.8,57.2,64,29.85,10.0,SSE,4.6,-,N/A,,Clear,150,2013-06-11 02:55:00
10:16 PM,69.8,59.0,68,29.85,10.0,SE,4.6,-,N/A,,Clear,140,2013-06-11 03:16:00
10:35 PM,68.0,59.0,73,29.85,10.0,SE,4.6,-,N/A,,Clear,140,2013-06-11 03:35:00
10:55 PM,68.0,59.0,73,29.85,10.0,SE,6.9,-,N/A,,Clear,140,2013-06-11 03:55:00
11:16 PM,68.0,59.0,73,29.84,10.0,SE,9.2,-,N/A,,Clear,140,2013-06-11 04:16:00
11:35 PM,66.2,59.0,78,29.85,10.0,SSE,6.9,-,N/A,,Clear,150,2013-06-11 04:35:00
11:55 PM,66.2,59.0,78,29.85,10.0,SSE,5.8,-,N/A,,Clear,150,2013-06-11 04:55:00